sensor_id;sensor_type;location;lat;lon;timestamp;P1;durP1;ratioP1;P2;durP2;ratioP2
21114;SDS011;10715;48.546;9.896;2022-08-19T00:02:25;90.90;;;38.10;;
21114;SDS011;10715;48.546;9.896;2022-08-19T00:04:51;65.40;;;36.73;;
21114;SDS011;10715;48.546;9.896;2022-08-19T00:07:19;76.90;;;38.70;;
21114;SDS011;10715;48.546;9.896;2022-08-19T00:09:45;75.43;;;39.97;;
21114;SDS011;10715;48.546;9.896;2022-08-19T00:12:11;83.53;;;35.30;;
21114;SDS011;10715;48.546;9.896;2022-08-19T00:14:38;75.37;;;39.70;;
21114;SDS011;10715;48.546;9.896;2022-08-19T00:17:06;74.80;;;39.40;;
21114;SDS011;10715;48.546;9.896;2022-08-19T00:19:32;73.90;;;38.47;;
21114;SDS011;10715;48.546;9.896;2022-08-19T00:21:58;89.07;;;41.80;;
21114;SDS011;10715;48.546;9.896;2022-08-19T00:24:24;70.83;;;37.90;;
21114;SDS011;10715;48.546;9.896;2022-08-19T00:26:50;75.90;;;43.63;;
21114;SDS011;10715;48.546;9.896;2022-08-19T00:29:18;76.03;;;40.47;;
21114;SDS011;10715;48.546;9.896;2022-08-19T00:31:45;81.37;;;40.50;;
21114;SDS011;10715;48.546;9.896;2022-08-19T00:34:12;79.00;;;42.63;;
21114;SDS011;10715;48.546;9.896;2022-08-19T00:36:39;71.07;;;40.07;;
21114;SDS011;10715;48.546;9.896;2022-08-19T00:39:07;71.80;;;41.17;;
21114;SDS011;10715;48.546;9.896;2022-08-19T00:41:36;81.87;;;41.10;;
21114;SDS011;10715;48.546;9.896;2022-08-19T00:44:04;93.20;;;42.50;;
21114;SDS011;10715;48.546;9.896;2022-08-19T00:46:34;90.00;;;41.77;;
21114;SDS011;10715;48.546;9.896;2022-08-19T00:49:03;84.37;;;41.57;;
21114;SDS011;10715;48.546;9.896;2022-08-19T00:51:34;73.73;;;39.07;;
21114;SDS011;10715;48.546;9.896;2022-08-19T00:54:01;93.77;;;45.17;;
21114;SDS011;10715;48.546;9.896;2022-08-19T00:56:27;102.77;;;45.27;;
21114;SDS011;10715;48.546;9.896;2022-08-19T00:58:56;81.53;;;40.63;;
21114;SDS011;10715;48.546;9.896;2022-08-19T01:01:24;90.67;;;41.70;;
21114;SDS011;10715;48.546;9.896;2022-08-19T01:03:50;90.80;;;47.60;;
21114;SDS011;10715;48.546;9.896;2022-08-19T01:06:16;85.77;;;44.03;;
21114;SDS011;10715;48.546;9.896;2022-08-19T01:08:42;96.00;;;43.50;;
21114;SDS011;10715;48.546;9.896;2022-08-19T01:11:08;70.80;;;38.83;;
21114;SDS011;10715;48.546;9.896;2022-08-19T01:13:34;84.77;;;40.83;;
21114;SDS011;10715;48.546;9.896;2022-08-19T01:16:03;84.40;;;37.60;;
21114;SDS011;10715;48.546;9.896;2022-08-19T01:18:31;69.47;;;37.90;;
21114;SDS011;10715;48.546;9.896;2022-08-19T01:21:02;86.90;;;41.13;;
21114;SDS011;10715;48.546;9.896;2022-08-19T01:23:32;70.27;;;36.47;;
21114;SDS011;10715;48.546;9.896;2022-08-19T01:26:18;79.83;;;42.13;;
21114;SDS011;10715;48.546;9.896;2022-08-19T01:28:48;85.03;;;40.03;;
21114;SDS011;10715;48.546;9.896;2022-08-19T01:31:18;73.60;;;40.13;;
21114;SDS011;10715;48.546;9.896;2022-08-19T01:33:48;68.63;;;39.07;;
21114;SDS011;10715;48.546;9.896;2022-08-19T01:36:16;79.33;;;42.80;;
21114;SDS011;10715;48.546;9.896;2022-08-19T01:39:08;78.40;;;40.17;;
21114;SDS011;10715;48.546;9.896;2022-08-19T01:41:36;82.23;;;42.83;;
21114;SDS011;10715;48.546;9.896;2022-08-19T01:44:02;87.87;;;42.20;;
21114;SDS011;10715;48.546;9.896;2022-08-19T01:46:30;99.80;;;43.13;;
21114;SDS011;10715;48.546;9.896;2022-08-19T01:48:57;79.70;;;41.80;;
21114;SDS011;10715;48.546;9.896;2022-08-19T01:51:23;94.20;;;44.83;;
21114;SDS011;10715;48.546;9.896;2022-08-19T01:53:50;99.63;;;44.20;;
21114;SDS011;10715;48.546;9.896;2022-08-19T01:56:18;100.60;;;44.47;;
21114;SDS011;10715;48.546;9.896;2022-08-19T01:58:47;107.27;;;48.07;;
21114;SDS011;10715;48.546;9.896;2022-08-19T02:01:17;143.87;;;48.77;;
21114;SDS011;10715;48.546;9.896;2022-08-19T02:03:44;131.43;;;48.03;;
21114;SDS011;10715;48.546;9.896;2022-08-19T02:06:10;147.93;;;51.57;;
21114;SDS011;10715;48.546;9.896;2022-08-19T02:08:37;112.73;;;51.67;;
21114;SDS011;10715;48.546;9.896;2022-08-19T02:11:04;106.07;;;49.50;;
21114;SDS011;10715;48.546;9.896;2022-08-19T02:13:31;123.37;;;50.17;;
21114;SDS011;10715;48.546;9.896;2022-08-19T02:15:57;128.20;;;54.93;;
21114;SDS011;10715;48.546;9.896;2022-08-19T02:18:23;103.10;;;44.50;;
21114;SDS011;10715;48.546;9.896;2022-08-19T02:20:49;106.10;;;45.50;;
21114;SDS011;10715;48.546;9.896;2022-08-19T02:23:15;88.70;;;47.13;;
21114;SDS011;10715;48.546;9.896;2022-08-19T02:25:42;114.83;;;47.97;;
21114;SDS011;10715;48.546;9.896;2022-08-19T02:28:10;102.77;;;46.30;;
21114;SDS011;10715;48.546;9.896;2022-08-19T02:30:36;91.83;;;45.53;;
21114;SDS011;10715;48.546;9.896;2022-08-19T02:33:03;87.87;;;43.83;;
21114;SDS011;10715;48.546;9.896;2022-08-19T02:35:30;158.17;;;55.23;;
21114;SDS011;10715;48.546;9.896;2022-08-19T02:37:56;139.60;;;56.20;;
21114;SDS011;10715;48.546;9.896;2022-08-19T02:40:40;133.57;;;53.77;;
21114;SDS011;10715;48.546;9.896;2022-08-19T02:43:14;124.33;;;55.23;;
21114;SDS011;10715;48.546;9.896;2022-08-19T02:45:40;112.53;;;45.90;;
21114;SDS011;10715;48.546;9.896;2022-08-19T02:48:06;161.73;;;58.67;;
21114;SDS011;10715;48.546;9.896;2022-08-19T02:50:33;126.23;;;50.70;;
21114;SDS011;10715;48.546;9.896;2022-08-19T02:53:05;126.43;;;46.90;;
21114;SDS011;10715;48.546;9.896;2022-08-19T02:55:33;126.17;;;50.60;;
21114;SDS011;10715;48.546;9.896;2022-08-19T02:57:59;138.23;;;53.20;;
21114;SDS011;10715;48.546;9.896;2022-08-19T03:00:25;141.07;;;52.93;;
21114;SDS011;10715;48.546;9.896;2022-08-19T03:02:52;130.50;;;52.60;;
21114;SDS011;10715;48.546;9.896;2022-08-19T03:05:18;166.13;;;56.60;;
21114;SDS011;10715;48.546;9.896;2022-08-19T03:07:44;119.73;;;48.63;;
21114;SDS011;10715;48.546;9.896;2022-08-19T03:10:12;151.33;;;58.20;;
21114;SDS011;10715;48.546;9.896;2022-08-19T03:12:38;188.60;;;70.77;;
21114;SDS011;10715;48.546;9.896;2022-08-19T03:15:05;129.70;;;58.10;;
21114;SDS011;10715;48.546;9.896;2022-08-19T03:17:33;139.63;;;57.10;;
21114;SDS011;10715;48.546;9.896;2022-08-19T03:19:59;120.53;;;52.63;;
21114;SDS011;10715;48.546;9.896;2022-08-19T03:22:25;118.07;;;49.57;;
21114;SDS011;10715;48.546;9.896;2022-08-19T03:24:51;121.13;;;50.23;;
21114;SDS011;10715;48.546;9.896;2022-08-19T03:27:17;131.70;;;53.43;;
21114;SDS011;10715;48.546;9.896;2022-08-19T03:29:42;143.03;;;56.30;;
21114;SDS011;10715;48.546;9.896;2022-08-19T03:32:08;131.97;;;58.00;;
21114;SDS011;10715;48.546;9.896;2022-08-19T03:34:36;133.67;;;56.70;;
21114;SDS011;10715;48.546;9.896;2022-08-19T03:37:07;137.70;;;53.30;;
21114;SDS011;10715;48.546;9.896;2022-08-19T03:39:36;145.07;;;58.73;;
21114;SDS011;10715;48.546;9.896;2022-08-19T03:42:03;159.83;;;58.47;;
21114;SDS011;10715;48.546;9.896;2022-08-19T03:44:30;152.60;;;53.40;;
21114;SDS011;10715;48.546;9.896;2022-08-19T03:46:58;137.90;;;56.60;;
21114;SDS011;10715;48.546;9.896;2022-08-19T03:49:25;159.17;;;61.50;;
21114;SDS011;10715;48.546;9.896;2022-08-19T03:51:53;120.73;;;50.20;;
21114;SDS011;10715;48.546;9.896;2022-08-19T03:54:21;101.93;;;49.63;;
21114;SDS011;10715;48.546;9.896;2022-08-19T03:56:49;126.40;;;52.47;;
21114;SDS011;10715;48.546;9.896;2022-08-19T03:59:17;173.23;;;63.50;;
21114;SDS011;10715;48.546;9.896;2022-08-19T04:01:47;162.13;;;57.40;;
21114;SDS011;10715;48.546;9.896;2022-08-19T04:04:13;135.33;;;54.80;;
21114;SDS011;10715;48.546;9.896;2022-08-19T04:06:38;169.87;;;62.47;;
21114;SDS011;10715;48.546;9.896;2022-08-19T04:09:05;162.03;;;59.60;;
21114;SDS011;10715;48.546;9.896;2022-08-19T04:11:35;127.20;;;53.57;;
21114;SDS011;10715;48.546;9.896;2022-08-19T04:14:14;122.43;;;50.60;;
21114;SDS011;10715;48.546;9.896;2022-08-19T04:16:41;159.57;;;62.13;;
21114;SDS011;10715;48.546;9.896;2022-08-19T04:19:09;127.50;;;56.33;;
21114;SDS011;10715;48.546;9.896;2022-08-19T04:21:35;115.83;;;46.87;;
21114;SDS011;10715;48.546;9.896;2022-08-19T04:24:01;126.73;;;47.47;;
21114;SDS011;10715;48.546;9.896;2022-08-19T04:26:29;128.83;;;52.27;;
21114;SDS011;10715;48.546;9.896;2022-08-19T04:28:57;118.83;;;50.70;;
21114;SDS011;10715;48.546;9.896;2022-08-19T04:31:25;154.67;;;61.43;;
21114;SDS011;10715;48.546;9.896;2022-08-19T04:33:55;104.50;;;48.03;;
21114;SDS011;10715;48.546;9.896;2022-08-19T04:36:27;121.20;;;50.00;;
21114;SDS011;10715;48.546;9.896;2022-08-19T04:38:55;125.60;;;48.70;;
21114;SDS011;10715;48.546;9.896;2022-08-19T04:41:23;117.10;;;47.07;;
21114;SDS011;10715;48.546;9.896;2022-08-19T04:44:08;106.53;;;47.17;;
21114;SDS011;10715;48.546;9.896;2022-08-19T04:46:33;161.40;;;54.77;;
21114;SDS011;10715;48.546;9.896;2022-08-19T04:48:59;120.87;;;51.23;;
21114;SDS011;10715;48.546;9.896;2022-08-19T04:51:26;107.53;;;47.93;;
21114;SDS011;10715;48.546;9.896;2022-08-19T04:53:52;113.93;;;48.03;;
21114;SDS011;10715;48.546;9.896;2022-08-19T04:56:19;97.90;;;46.27;;
21114;SDS011;10715;48.546;9.896;2022-08-19T04:58:51;126.80;;;51.87;;
21114;SDS011;10715;48.546;9.896;2022-08-19T05:01:19;109.90;;;46.53;;
21114;SDS011;10715;48.546;9.896;2022-08-19T05:03:46;115.80;;;48.40;;
21114;SDS011;10715;48.546;9.896;2022-08-19T05:06:13;110.13;;;44.03;;
21114;SDS011;10715;48.546;9.896;2022-08-19T05:08:40;99.47;;;43.70;;
21114;SDS011;10715;48.546;9.896;2022-08-19T05:11:12;100.33;;;43.77;;
21114;SDS011;10715;48.546;9.896;2022-08-19T05:13:41;81.03;;;40.17;;
21114;SDS011;10715;48.546;9.896;2022-08-19T05:16:10;88.90;;;39.97;;
21114;SDS011;10715;48.546;9.896;2022-08-19T05:18:37;79.53;;;38.67;;
21114;SDS011;10715;48.546;9.896;2022-08-19T05:21:22;73.83;;;35.30;;
21114;SDS011;10715;48.546;9.896;2022-08-19T05:24:07;76.30;;;35.50;;
21114;SDS011;10715;48.546;9.896;2022-08-19T05:26:34;63.90;;;34.60;;
21114;SDS011;10715;48.546;9.896;2022-08-19T05:29:03;63.63;;;32.43;;
21114;SDS011;10715;48.546;9.896;2022-08-19T05:31:30;66.43;;;33.57;;
21114;SDS011;10715;48.546;9.896;2022-08-19T05:33:56;63.17;;;32.93;;
21114;SDS011;10715;48.546;9.896;2022-08-19T05:36:23;70.00;;;36.50;;
21114;SDS011;10715;48.546;9.896;2022-08-19T05:38:50;65.90;;;34.40;;
21114;SDS011;10715;48.546;9.896;2022-08-19T05:41:18;73.20;;;33.37;;
21114;SDS011;10715;48.546;9.896;2022-08-19T05:43:45;53.00;;;28.50;;
21114;SDS011;10715;48.546;9.896;2022-08-19T05:46:16;67.93;;;31.83;;
21114;SDS011;10715;48.546;9.896;2022-08-19T05:48:44;70.20;;;33.77;;
21114;SDS011;10715;48.546;9.896;2022-08-19T05:51:11;60.90;;;33.57;;
21114;SDS011;10715;48.546;9.896;2022-08-19T05:53:37;68.03;;;34.87;;
21114;SDS011;10715;48.546;9.896;2022-08-19T05:56:10;75.43;;;33.60;;
21114;SDS011;10715;48.546;9.896;2022-08-19T05:58:37;83.10;;;38.80;;
21114;SDS011;10715;48.546;9.896;2022-08-19T06:01:04;81.37;;;37.07;;
21114;SDS011;10715;48.546;9.896;2022-08-19T06:03:36;69.43;;;34.23;;
21114;SDS011;10715;48.546;9.896;2022-08-19T06:06:03;79.30;;;37.73;;
21114;SDS011;10715;48.546;9.896;2022-08-19T06:08:30;78.50;;;38.30;;
21114;SDS011;10715;48.546;9.896;2022-08-19T06:10:56;101.23;;;42.53;;
21114;SDS011;10715;48.546;9.896;2022-08-19T06:13:22;119.50;;;45.17;;
21114;SDS011;10715;48.546;9.896;2022-08-19T06:15:48;101.80;;;40.80;;
21114;SDS011;10715;48.546;9.896;2022-08-19T06:18:15;114.20;;;44.03;;
21114;SDS011;10715;48.546;9.896;2022-08-19T06:20:41;115.27;;;45.97;;
21114;SDS011;10715;48.546;9.896;2022-08-19T06:23:07;98.57;;;41.67;;
21114;SDS011;10715;48.546;9.896;2022-08-19T06:25:34;95.07;;;42.17;;
21114;SDS011;10715;48.546;9.896;2022-08-19T06:28:01;107.67;;;43.23;;
21114;SDS011;10715;48.546;9.896;2022-08-19T06:30:27;96.00;;;42.53;;
21114;SDS011;10715;48.546;9.896;2022-08-19T06:32:53;120.57;;;44.47;;
21114;SDS011;10715;48.546;9.896;2022-08-19T06:35:19;133.90;;;46.20;;
21114;SDS011;10715;48.546;9.896;2022-08-19T06:37:45;135.33;;;49.73;;
21114;SDS011;10715;48.546;9.896;2022-08-19T06:40:11;120.67;;;47.30;;
21114;SDS011;10715;48.546;9.896;2022-08-19T06:42:37;130.13;;;49.43;;
21114;SDS011;10715;48.546;9.896;2022-08-19T06:45:04;129.67;;;48.80;;
21114;SDS011;10715;48.546;9.896;2022-08-19T06:47:31;104.93;;;44.40;;
21114;SDS011;10715;48.546;9.896;2022-08-19T06:49:59;125.77;;;47.57;;
21114;SDS011;10715;48.546;9.896;2022-08-19T06:52:28;124.57;;;46.37;;
21114;SDS011;10715;48.546;9.896;2022-08-19T06:54:55;108.93;;;47.10;;
21114;SDS011;10715;48.546;9.896;2022-08-19T06:57:21;100.17;;;44.93;;
21114;SDS011;10715;48.546;9.896;2022-08-19T06:59:48;120.10;;;46.27;;
21114;SDS011;10715;48.546;9.896;2022-08-19T07:02:14;108.23;;;44.83;;
21114;SDS011;10715;48.546;9.896;2022-08-19T07:04:39;93.77;;;41.83;;
21114;SDS011;10715;48.546;9.896;2022-08-19T07:07:06;97.40;;;43.10;;
21114;SDS011;10715;48.546;9.896;2022-08-19T07:09:35;120.23;;;44.83;;
21114;SDS011;10715;48.546;9.896;2022-08-19T07:12:04;94.97;;;45.57;;
21114;SDS011;10715;48.546;9.896;2022-08-19T07:14:32;101.20;;;42.50;;
21114;SDS011;10715;48.546;9.896;2022-08-19T07:17:08;113.23;;;45.60;;
21114;SDS011;10715;48.546;9.896;2022-08-19T07:19:36;103.40;;;43.63;;
21114;SDS011;10715;48.546;9.896;2022-08-19T07:22:03;93.63;;;41.97;;
21114;SDS011;10715;48.546;9.896;2022-08-19T07:24:31;97.40;;;42.70;;
21114;SDS011;10715;48.546;9.896;2022-08-19T07:26:59;118.73;;;44.77;;
21114;SDS011;10715;48.546;9.896;2022-08-19T07:29:28;125.47;;;49.80;;
21114;SDS011;10715;48.546;9.896;2022-08-19T07:31:58;135.77;;;47.90;;
21114;SDS011;10715;48.546;9.896;2022-08-19T07:34:25;102.13;;;45.07;;
21114;SDS011;10715;48.546;9.896;2022-08-19T07:36:52;118.83;;;47.10;;
21114;SDS011;10715;48.546;9.896;2022-08-19T07:39:20;122.07;;;47.57;;
21114;SDS011;10715;48.546;9.896;2022-08-19T07:41:48;149.50;;;52.13;;
21114;SDS011;10715;48.546;9.896;2022-08-19T07:44:15;102.70;;;43.50;;
21114;SDS011;10715;48.546;9.896;2022-08-19T07:46:44;112.93;;;47.57;;
21114;SDS011;10715;48.546;9.896;2022-08-19T07:49:12;111.27;;;48.10;;
21114;SDS011;10715;48.546;9.896;2022-08-19T07:51:44;108.97;;;42.97;;
21114;SDS011;10715;48.546;9.896;2022-08-19T07:54:21;104.47;;;44.37;;
21114;SDS011;10715;48.546;9.896;2022-08-19T07:56:48;99.77;;;42.77;;
21114;SDS011;10715;48.546;9.896;2022-08-19T07:59:15;100.00;;;42.80;;
21114;SDS011;10715;48.546;9.896;2022-08-19T08:01:42;100.20;;;45.10;;
21114;SDS011;10715;48.546;9.896;2022-08-19T08:04:09;110.73;;;46.33;;
21114;SDS011;10715;48.546;9.896;2022-08-19T08:06:54;130.13;;;49.27;;
21114;SDS011;10715;48.546;9.896;2022-08-19T08:09:40;94.07;;;45.80;;
21114;SDS011;10715;48.546;9.896;2022-08-19T08:12:12;102.63;;;44.53;;
21114;SDS011;10715;48.546;9.896;2022-08-19T08:14:43;111.90;;;44.57;;
21114;SDS011;10715;48.546;9.896;2022-08-19T08:17:14;132.30;;;45.57;;
21114;SDS011;10715;48.546;9.896;2022-08-19T08:19:42;104.40;;;42.50;;
21114;SDS011;10715;48.546;9.896;2022-08-19T08:22:10;117.10;;;47.70;;
21114;SDS011;10715;48.546;9.896;2022-08-19T08:25:09;128.97;;;49.90;;
21114;SDS011;10715;48.546;9.896;2022-08-19T08:27:43;93.40;;;44.37;;
21114;SDS011;10715;48.546;9.896;2022-08-19T08:30:12;97.90;;;40.00;;
21114;SDS011;10715;48.546;9.896;2022-08-19T08:32:42;107.20;;;47.77;;
21114;SDS011;10715;48.546;9.896;2022-08-19T08:35:09;112.93;;;48.30;;
21114;SDS011;10715;48.546;9.896;2022-08-19T08:37:37;96.23;;;44.47;;
21114;SDS011;10715;48.546;9.896;2022-08-19T08:40:07;99.83;;;44.27;;
21114;SDS011;10715;48.546;9.896;2022-08-19T08:43:27;81.63;;;38.87;;
21114;SDS011;10715;48.546;9.896;2022-08-19T08:45:57;85.10;;;39.30;;
21114;SDS011;10715;48.546;9.896;2022-08-19T08:48:30;85.13;;;38.07;;
21114;SDS011;10715;48.546;9.896;2022-08-19T08:51:00;74.27;;;38.83;;
21114;SDS011;10715;48.546;9.896;2022-08-19T08:53:29;72.93;;;37.30;;
21114;SDS011;10715;48.546;9.896;2022-08-19T08:55:57;70.13;;;36.50;;
21114;SDS011;10715;48.546;9.896;2022-08-19T08:58:27;64.23;;;34.97;;
21114;SDS011;10715;48.546;9.896;2022-08-19T09:00:58;61.27;;;36.97;;
21114;SDS011;10715;48.546;9.896;2022-08-19T09:03:24;65.37;;;34.77;;
21114;SDS011;10715;48.546;9.896;2022-08-19T09:06:07;68.80;;;34.70;;
21114;SDS011;10715;48.546;9.896;2022-08-19T09:11:37;68.23;;;36.47;;
21114;SDS011;10715;48.546;9.896;2022-08-19T09:17:02;83.13;;;37.20;;
21114;SDS011;10715;48.546;9.896;2022-08-19T09:19:32;98.20;;;40.00;;
21114;SDS011;10715;48.546;9.896;2022-08-19T09:21:58;104.20;;;43.37;;
21114;SDS011;10715;48.546;9.896;2022-08-19T09:24:25;79.93;;;38.17;;
21114;SDS011;10715;48.546;9.896;2022-08-19T09:26:51;91.93;;;43.23;;
21114;SDS011;10715;48.546;9.896;2022-08-19T09:29:17;78.53;;;37.87;;
21114;SDS011;10715;48.546;9.896;2022-08-19T09:31:43;83.70;;;40.70;;
21114;SDS011;10715;48.546;9.896;2022-08-19T09:34:08;71.97;;;40.33;;
21114;SDS011;10715;48.546;9.896;2022-08-19T09:36:34;74.60;;;41.10;;
21114;SDS011;10715;48.546;9.896;2022-08-19T09:39:03;82.93;;;38.67;;
21114;SDS011;10715;48.546;9.896;2022-08-19T09:41:31;81.60;;;39.23;;
21114;SDS011;10715;48.546;9.896;2022-08-19T09:43:59;89.43;;;38.33;;
21114;SDS011;10715;48.546;9.896;2022-08-19T09:46:26;81.30;;;38.67;;
21114;SDS011;10715;48.546;9.896;2022-08-19T09:48:53;81.43;;;38.87;;
21114;SDS011;10715;48.546;9.896;2022-08-19T09:51:22;71.07;;;37.43;;
21114;SDS011;10715;48.546;9.896;2022-08-19T09:53:50;73.83;;;38.00;;
21114;SDS011;10715;48.546;9.896;2022-08-19T09:56:19;71.63;;;34.77;;
21114;SDS011;10715;48.546;9.896;2022-08-19T09:58:46;66.47;;;35.10;;
21114;SDS011;10715;48.546;9.896;2022-08-19T10:01:20;59.00;;;33.67;;
21114;SDS011;10715;48.546;9.896;2022-08-19T10:03:51;56.37;;;32.70;;
21114;SDS011;10715;48.546;9.896;2022-08-19T10:06:20;56.40;;;32.17;;
21114;SDS011;10715;48.546;9.896;2022-08-19T10:08:47;60.90;;;30.03;;
21114;SDS011;10715;48.546;9.896;2022-08-19T10:11:14;54.37;;;30.80;;
21114;SDS011;10715;48.546;9.896;2022-08-19T10:13:42;53.63;;;30.93;;
21114;SDS011;10715;48.546;9.896;2022-08-19T10:16:12;55.93;;;31.10;;
21114;SDS011;10715;48.546;9.896;2022-08-19T10:18:44;59.47;;;32.17;;
21114;SDS011;10715;48.546;9.896;2022-08-19T10:21:12;53.50;;;31.67;;
21114;SDS011;10715;48.546;9.896;2022-08-19T10:23:48;59.93;;;33.73;;
21114;SDS011;10715;48.546;9.896;2022-08-19T10:26:17;58.77;;;32.50;;
21114;SDS011;10715;48.546;9.896;2022-08-19T10:28:44;63.13;;;33.97;;
21114;SDS011;10715;48.546;9.896;2022-08-19T10:31:12;58.97;;;32.67;;
21114;SDS011;10715;48.546;9.896;2022-08-19T10:33:42;62.80;;;32.73;;
21114;SDS011;10715;48.546;9.896;2022-08-19T10:36:09;61.87;;;33.40;;
21114;SDS011;10715;48.546;9.896;2022-08-19T10:38:39;67.43;;;34.00;;
21114;SDS011;10715;48.546;9.896;2022-08-19T10:41:16;83.83;;;36.33;;
21114;SDS011;10715;48.546;9.896;2022-08-19T10:43:44;67.10;;;32.27;;
21114;SDS011;10715;48.546;9.896;2022-08-19T10:46:11;83.53;;;36.50;;
21114;SDS011;10715;48.546;9.896;2022-08-19T10:48:39;76.67;;;36.37;;
21114;SDS011;10715;48.546;9.896;2022-08-19T10:51:05;73.93;;;39.30;;
21114;SDS011;10715;48.546;9.896;2022-08-19T10:53:50;69.87;;;36.73;;
21114;SDS011;10715;48.546;9.896;2022-08-19T10:56:16;79.60;;;39.63;;
21114;SDS011;10715;48.546;9.896;2022-08-19T10:59:01;88.77;;;43.40;;
21114;SDS011;10715;48.546;9.896;2022-08-19T11:01:28;88.70;;;42.93;;
21114;SDS011;10715;48.546;9.896;2022-08-19T11:03:55;79.77;;;41.57;;
21114;SDS011;10715;48.546;9.896;2022-08-19T11:06:25;86.23;;;42.27;;
21114;SDS011;10715;48.546;9.896;2022-08-19T11:08:51;129.17;;;44.23;;
21114;SDS011;10715;48.546;9.896;2022-08-19T11:11:18;119.97;;;46.97;;
21114;SDS011;10715;48.546;9.896;2022-08-19T11:13:43;109.80;;;43.07;;
21114;SDS011;10715;48.546;9.896;2022-08-19T11:16:21;105.50;;;45.53;;
21114;SDS011;10715;48.546;9.896;2022-08-19T11:18:52;105.23;;;44.23;;
21114;SDS011;10715;48.546;9.896;2022-08-19T11:21:27;91.70;;;41.43;;
21114;SDS011;10715;48.546;9.896;2022-08-19T11:23:57;114.57;;;43.37;;
21114;SDS011;10715;48.546;9.896;2022-08-19T11:26:25;110.43;;;45.93;;
21114;SDS011;10715;48.546;9.896;2022-08-19T11:28:52;106.30;;;44.47;;
21114;SDS011;10715;48.546;9.896;2022-08-19T11:31:20;99.80;;;42.20;;
21114;SDS011;10715;48.546;9.896;2022-08-19T11:33:48;91.00;;;42.60;;
21114;SDS011;10715;48.546;9.896;2022-08-19T11:36:17;92.43;;;37.97;;
21114;SDS011;10715;48.546;9.896;2022-08-19T11:38:45;86.50;;;38.40;;
21114;SDS011;10715;48.546;9.896;2022-08-19T11:41:14;78.80;;;36.77;;
21114;SDS011;10715;48.546;9.896;2022-08-19T11:43:42;79.53;;;36.77;;
21114;SDS011;10715;48.546;9.896;2022-08-19T11:46:09;77.30;;;36.60;;
21114;SDS011;10715;48.546;9.896;2022-08-19T11:48:37;98.70;;;40.93;;
21114;SDS011;10715;48.546;9.896;2022-08-19T11:51:04;92.00;;;38.10;;
21114;SDS011;10715;48.546;9.896;2022-08-19T11:53:32;87.80;;;41.03;;
21114;SDS011;10715;48.546;9.896;2022-08-19T11:55:59;79.23;;;37.50;;
21114;SDS011;10715;48.546;9.896;2022-08-19T11:58:24;75.67;;;36.50;;
21114;SDS011;10715;48.546;9.896;2022-08-19T12:00:51;112.60;;;40.87;;
21114;SDS011;10715;48.546;9.896;2022-08-19T12:03:17;90.73;;;39.30;;
21114;SDS011;10715;48.546;9.896;2022-08-19T12:05:44;92.13;;;37.77;;
21114;SDS011;10715;48.546;9.896;2022-08-19T12:08:10;69.60;;;37.10;;
21114;SDS011;10715;48.546;9.896;2022-08-19T12:10:38;57.80;;;32.20;;
21114;SDS011;10715;48.546;9.896;2022-08-19T12:13:04;83.00;;;37.27;;
21114;SDS011;10715;48.546;9.896;2022-08-19T12:15:34;85.20;;;37.67;;
21114;SDS011;10715;48.546;9.896;2022-08-19T12:18:06;72.57;;;35.80;;
21114;SDS011;10715;48.546;9.896;2022-08-19T12:20:36;72.87;;;33.60;;
21114;SDS011;10715;48.546;9.896;2022-08-19T12:23:04;97.70;;;34.80;;
21114;SDS011;10715;48.546;9.896;2022-08-19T12:25:30;99.37;;;37.90;;
21114;SDS011;10715;48.546;9.896;2022-08-19T12:27:57;95.83;;;36.67;;
21114;SDS011;10715;48.546;9.896;2022-08-19T12:30:23;75.20;;;31.53;;
21114;SDS011;10715;48.546;9.896;2022-08-19T12:32:49;53.13;;;29.40;;
21114;SDS011;10715;48.546;9.896;2022-08-19T12:35:16;50.63;;;27.47;;
21114;SDS011;10715;48.546;9.896;2022-08-19T12:37:45;81.53;;;29.93;;
21114;SDS011;10715;48.546;9.896;2022-08-19T12:40:12;53.03;;;28.17;;
21114;SDS011;10715;48.546;9.896;2022-08-19T12:42:39;64.03;;;25.30;;
21114;SDS011;10715;48.546;9.896;2022-08-19T12:45:10;61.10;;;27.87;;
21114;SDS011;10715;48.546;9.896;2022-08-19T12:47:37;43.90;;;23.73;;
21114;SDS011;10715;48.546;9.896;2022-08-19T12:50:03;63.40;;;27.53;;
21114;SDS011;10715;48.546;9.896;2022-08-19T12:52:31;55.17;;;25.83;;
21114;SDS011;10715;48.546;9.896;2022-08-19T12:54:57;50.53;;;24.23;;
21114;SDS011;10715;48.546;9.896;2022-08-19T12:57:24;61.33;;;24.20;;
21114;SDS011;10715;48.546;9.896;2022-08-19T12:59:52;72.30;;;26.10;;
21114;SDS011;10715;48.546;9.896;2022-08-19T13:02:19;44.87;;;21.60;;
21114;SDS011;10715;48.546;9.896;2022-08-19T13:04:46;39.20;;;22.17;;
21114;SDS011;10715;48.546;9.896;2022-08-19T13:07:12;55.40;;;23.00;;
21114;SDS011;10715;48.546;9.896;2022-08-19T13:09:37;55.40;;;23.27;;
21114;SDS011;10715;48.546;9.896;2022-08-19T13:12:06;92.27;;;23.47;;
21114;SDS011;10715;48.546;9.896;2022-08-19T13:14:35;99.80;;;25.27;;
21114;SDS011;10715;48.546;9.896;2022-08-19T13:17:01;52.53;;;23.17;;
21114;SDS011;10715;48.546;9.896;2022-08-19T13:19:27;48.63;;;22.93;;
21114;SDS011;10715;48.546;9.896;2022-08-19T13:21:53;45.90;;;23.00;;
21114;SDS011;10715;48.546;9.896;2022-08-19T13:24:20;50.03;;;21.30;;
21114;SDS011;10715;48.546;9.896;2022-08-19T13:26:46;71.23;;;25.03;;
21114;SDS011;10715;48.546;9.896;2022-08-19T13:29:12;44.03;;;23.67;;
21114;SDS011;10715;48.546;9.896;2022-08-19T13:31:57;44.97;;;23.10;;
21114;SDS011;10715;48.546;9.896;2022-08-19T13:34:41;47.77;;;25.17;;
21114;SDS011;10715;48.546;9.896;2022-08-19T13:37:07;53.40;;;23.60;;
21114;SDS011;10715;48.546;9.896;2022-08-19T13:39:33;56.60;;;25.77;;
21114;SDS011;10715;48.546;9.896;2022-08-19T13:42:05;52.47;;;26.03;;
21114;SDS011;10715;48.546;9.896;2022-08-19T13:44:32;54.90;;;24.27;;
21114;SDS011;10715;48.546;9.896;2022-08-19T13:47:02;66.93;;;27.20;;
21114;SDS011;10715;48.546;9.896;2022-08-19T13:49:31;48.70;;;25.17;;
21114;SDS011;10715;48.546;9.896;2022-08-19T13:51:58;70.90;;;25.23;;
21114;SDS011;10715;48.546;9.896;2022-08-19T13:54:24;48.50;;;25.00;;
21114;SDS011;10715;48.546;9.896;2022-08-19T13:56:49;46.63;;;24.00;;
21114;SDS011;10715;48.546;9.896;2022-08-19T13:59:15;57.73;;;24.20;;
21114;SDS011;10715;48.546;9.896;2022-08-19T14:01:42;63.73;;;27.23;;
21114;SDS011;10715;48.546;9.896;2022-08-19T14:04:08;58.57;;;25.83;;
21114;SDS011;10715;48.546;9.896;2022-08-19T14:06:34;64.63;;;26.67;;
21114;SDS011;10715;48.546;9.896;2022-08-19T14:09:00;58.07;;;26.50;;
21114;SDS011;10715;48.546;9.896;2022-08-19T14:11:27;46.77;;;22.80;;
21114;SDS011;10715;48.546;9.896;2022-08-19T14:13:53;50.67;;;25.40;;
21114;SDS011;10715;48.546;9.896;2022-08-19T14:16:19;56.20;;;25.80;;
21114;SDS011;10715;48.546;9.896;2022-08-19T14:18:46;71.73;;;24.67;;
21114;SDS011;10715;48.546;9.896;2022-08-19T14:21:16;41.30;;;23.13;;
21114;SDS011;10715;48.546;9.896;2022-08-19T14:23:45;53.60;;;25.33;;
21114;SDS011;10715;48.546;9.896;2022-08-19T14:26:12;42.53;;;23.23;;
21114;SDS011;10715;48.546;9.896;2022-08-19T14:28:39;60.10;;;24.53;;
21114;SDS011;10715;48.546;9.896;2022-08-19T14:31:07;50.03;;;23.70;;